YSGR weather

South Grafton Airport
New South Wales, Australia

Public forecast

Using degrees Celsius for public forecast. Weather courtesy of forecast.io.

Closest aviation weather report (METAR) to South Grafton Airport

Closest report is Grafton Airport, 6.1 nm (11.4 km) ESE. Retrieved 2019/10/22 12:00 UTC (21 minutes ago):

YGFN 221200Z AUTO 19004KT 9999 // NCD 15/12 Q1025

Closest aviation forecast (TAF) to South Grafton Airport

Closest forecast is Gold Coast Airport, 97.5 nm (180.6 km) NNE. Retrieved 2019/10/22 12:00 UTC (21 minutes ago):

TAF YBCG 221104Z 2212/2312 23006KT 9999 FEW025 SCT040 FM222300 11008KT 9999 SCT035 FM230100 05012KT 9999 FEW040 FM230900 23006KT 9999 FEW030